createdAt,value
2022-08-07T00:00:07.840Z,28.10
2022-08-07T00:02:41.412Z,27.90
2022-08-07T00:05:14.125Z,27.70
2022-08-07T00:07:43.680Z,27.60
2022-08-07T00:10:27.163Z,27.40
2022-08-07T00:13:01.103Z,27.30
2022-08-07T00:15:38.028Z,27.10
2022-08-07T00:18:19.789Z,27.10
2022-08-07T00:20:52.802Z,26.90
2022-08-07T00:23:30.150Z,26.90
2022-08-07T00:26:06.866Z,26.80
2022-08-07T00:28:45.892Z,26.70
2022-08-07T00:31:37.664Z,26.60
2022-08-07T00:34:11.641Z,26.50
2022-08-07T00:36:42.937Z,26.40
2022-08-07T00:39:16.754Z,26.30
2022-08-07T00:42:02.565Z,26.10
2022-08-07T00:44:34.782Z,25.90
2022-08-07T00:47:16.165Z,25.70
2022-08-07T00:50:19.727Z,25.70
2022-08-07T00:52:47.305Z,25.60
2022-08-07T00:55:25.540Z,25.60
2022-08-07T00:58:07.850Z,25.60
2022-08-07T01:00:38.568Z,25.60
2022-08-07T01:03:57.062Z,25.60
2022-08-07T01:06:18.284Z,25.60
2022-08-07T01:08:53.222Z,25.60
2022-08-07T01:12:23.671Z,25.40
2022-08-07T01:14:15.511Z,25.30
2022-08-07T01:16:48.064Z,25.30
2022-08-07T01:19:20.900Z,25.20
2022-08-07T01:21:55.328Z,25.10
2022-08-07T01:24:25.231Z,25.00
2022-08-07T01:26:56.295Z,24.90
2022-08-07T01:29:33.882Z,24.80
2022-08-07T01:32:05.226Z,24.80
2022-08-07T01:34:37.955Z,24.80
2022-08-07T01:37:09.953Z,24.70
2022-08-07T01:39:46.882Z,24.80
2022-08-07T01:42:38.057Z,24.70
2022-08-07T01:45:10.018Z,24.80
2022-08-07T01:48:20.015Z,24.70
2022-08-07T01:50:42.950Z,24.70
2022-08-07T01:53:20.870Z,24.70
2022-08-07T01:55:53.267Z,24.60
2022-08-07T01:58:29.642Z,24.60
2022-08-07T02:01:10.147Z,24.50
2022-08-07T02:04:00.789Z,24.50
2022-08-07T02:06:33.019Z,24.30
2022-08-07T02:09:06.313Z,24.30
2022-08-07T02:12:03.075Z,24.30
2022-08-07T02:14:35.832Z,24.20
2022-08-07T02:17:08.264Z,24.20
2022-08-07T02:20:04.553Z,24.20
2022-08-07T02:22:29.760Z,24.20
2022-08-07T02:25:01.964Z,24.20
2022-08-07T02:27:41.135Z,24.20
2022-08-07T02:30:12.984Z,24.20
2022-08-07T02:33:00.678Z,24.20
2022-08-07T02:36:29.027Z,24.20
2022-08-07T02:38:31.534Z,24.30
2022-08-07T02:41:03.739Z,24.30
2022-08-07T02:43:34.489Z,24.40
2022-08-07T02:46:06.973Z,24.40
2022-08-07T02:48:37.308Z,24.40
2022-08-07T02:51:14.190Z,24.50
2022-08-07T02:53:59.608Z,24.50
2022-08-07T02:56:32.348Z,24.50
2022-08-07T02:59:04.318Z,24.50
2022-08-07T03:01:39.976Z,24.40
2022-08-07T03:04:12.838Z,24.30
2022-08-07T03:06:44.707Z,24.30
2022-08-07T03:09:42.458Z,24.30
2022-08-07T03:12:08.107Z,24.30
2022-08-07T03:14:52.418Z,24.30
2022-08-07T03:17:22.490Z,24.30
2022-08-07T03:19:54.748Z,24.40
2022-08-07T03:22:29.647Z,24.30
2022-08-07T03:25:00.543Z,24.30
2022-08-07T03:27:58.846Z,24.30
2022-08-07T03:30:21.821Z,24.20
2022-08-07T03:32:58.797Z,24.10
2022-08-07T03:35:43.493Z,24.10
2022-08-07T03:38:13.936Z,24.00
2022-08-07T03:40:44.479Z,24.10
2022-08-07T03:43:16.508Z,24.00
2022-08-07T03:45:47.465Z,24.00
2022-08-07T03:48:17.743Z,24.00
2022-08-07T03:50:56.290Z,23.90
2022-08-07T03:54:00.526Z,23.90
2022-08-07T03:56:32.826Z,23.90
2022-08-07T03:59:09.882Z,23.90
2022-08-07T04:01:45.464Z,23.80
2022-08-07T04:04:18.058Z,23.90
2022-08-07T04:06:51.625Z,23.80
2022-08-07T04:09:23.209Z,23.70
2022-08-07T04:12:27.638Z,23.70
2022-08-07T04:14:47.758Z,23.70
2022-08-07T04:17:21.507Z,23.70
2022-08-07T04:19:58.909Z,23.60
2022-08-07T04:22:29.594Z,23.60
2022-08-07T04:25:01.419Z,23.60
2022-08-07T04:27:44.424Z,23.60
2022-08-07T04:30:36.061Z,23.60
2022-08-07T04:33:09.324Z,23.60
2022-08-07T04:35:39.479Z,23.50
2022-08-07T04:38:13.245Z,23.50
2022-08-07T04:40:51.212Z,23.40
2022-08-07T04:44:13.259Z,23.30
2022-08-07T04:46:25.693Z,23.20
2022-08-07T04:49:01.910Z,23.10
2022-08-07T04:51:40.307Z,23.00
2022-08-07T04:54:15.778Z,23.00
2022-08-07T04:58:11.332Z,22.90
2022-08-07T05:00:14.221Z,22.90
2022-08-07T05:02:33.034Z,23.00
2022-08-07T05:05:11.489Z,23.00
2022-08-07T05:07:48.679Z,23.00
2022-08-07T05:10:24.414Z,22.90
2022-08-07T05:13:01.578Z,22.90
2022-08-07T05:15:50.867Z,22.80
2022-08-07T05:18:26.953Z,22.70
2022-08-07T05:21:00.016Z,22.60
2022-08-07T05:23:35.660Z,22.60
2022-08-07T05:26:15.553Z,22.50
2022-08-07T05:28:50.548Z,22.50
2022-08-07T05:31:20.830Z,22.50
2022-08-07T05:34:04.731Z,22.50
2022-08-07T05:36:36.004Z,22.50
2022-08-07T05:40:14.071Z,22.50
2022-08-07T05:42:02.657Z,22.50
2022-08-07T05:44:34.207Z,22.60
2022-08-07T05:47:18.092Z,22.60
2022-08-07T05:49:50.575Z,22.60
2022-08-07T05:52:20.544Z,22.70
2022-08-07T05:55:02.975Z,22.80
2022-08-07T05:57:42.209Z,22.80
2022-08-07T06:00:16.733Z,22.80
2022-08-07T06:02:50.293Z,22.90
2022-08-07T06:05:25.921Z,22.90
2022-08-07T06:08:05.368Z,22.80
2022-08-07T06:10:51.297Z,22.80
2022-08-07T06:14:10.321Z,22.80
2022-08-07T06:16:15.442Z,22.80
2022-08-07T06:18:51.552Z,22.80
2022-08-07T06:22:14.426Z,22.70
2022-08-07T06:24:46.014Z,22.70
2022-08-07T06:27:06.586Z,22.60
2022-08-07T06:29:38.871Z,22.60
2022-08-07T06:32:08.975Z,22.50
2022-08-07T06:34:45.356Z,22.50
2022-08-07T06:37:17.183Z,22.50
2022-08-07T06:40:16.309Z,22.50
2022-08-07T06:42:51.898Z,22.40
2022-08-07T06:45:22.840Z,22.30
2022-08-07T06:47:58.494Z,22.10
2022-08-07T06:50:30.541Z,22.10
2022-08-07T06:53:04.203Z,22.00
2022-08-07T06:55:53.859Z,21.90
2022-08-07T06:58:27.566Z,21.90
2022-08-07T07:00:58.882Z,21.90
2022-08-07T07:03:47.950Z,21.90
2022-08-07T07:06:23.757Z,21.90
2022-08-07T07:08:58.170Z,21.80
2022-08-07T07:12:09.036Z,21.80
2022-08-07T07:14:18.670Z,21.80
2022-08-07T07:16:53.530Z,21.80
2022-08-07T07:19:57.223Z,21.80
2022-08-07T07:22:36.093Z,21.80
2022-08-07T07:26:30.392Z,21.80
2022-08-07T07:28:02.545Z,21.80
2022-08-07T07:30:38.480Z,21.80
2022-08-07T07:33:11.965Z,21.80
2022-08-07T07:35:43.970Z,21.80
2022-08-07T07:38:26.036Z,21.80
2022-08-07T07:41:02.221Z,21.80
2022-08-07T07:44:14.922Z,21.80
2022-08-07T07:46:37.564Z,21.80
2022-08-07T07:50:32.807Z,21.70
2022-08-07T07:52:05.504Z,21.70
2022-08-07T07:54:37.055Z,21.70
2022-08-07T07:57:09.263Z,21.70
2022-08-07T07:59:52.105Z,21.70
2022-08-07T08:02:35.506Z,21.70
2022-08-07T08:05:11.431Z,21.70
2022-08-07T08:08:00.058Z,21.60
2022-08-07T08:10:37.873Z,21.60
2022-08-07T08:13:15.199Z,21.60
2022-08-07T08:18:36.344Z,21.50
2022-08-07T08:18:38.159Z,21.50
2022-08-07T08:21:56.042Z,21.40
2022-08-07T08:24:44.997Z,21.50
2022-08-07T08:27:16.873Z,21.60
2022-08-07T08:29:55.911Z,21.60
2022-08-07T08:32:38.584Z,21.60
2022-08-07T08:35:10.534Z,21.60
2022-08-07T08:38:00.532Z,21.70
2022-08-07T08:40:32.126Z,21.70
2022-08-07T08:43:05.847Z,21.70
2022-08-07T08:45:41.896Z,21.60
2022-08-07T08:48:36.374Z,21.60
2022-08-07T08:51:14.357Z,21.60
2022-08-07T08:53:54.930Z,21.50
2022-08-07T08:56:27.140Z,21.50
2022-08-07T08:58:59.534Z,21.40
2022-08-07T09:01:39.985Z,21.50
2022-08-07T09:04:17.407Z,21.40
2022-08-07T09:06:58.229Z,21.40
2022-08-07T09:09:43.885Z,21.40
2022-08-07T09:12:31.681Z,21.40
2022-08-07T09:16:23.811Z,21.40
2022-08-07T09:18:23.631Z,21.40
2022-08-07T09:21:01.754Z,21.50
2022-08-07T09:24:33.796Z,21.50
2022-08-07T09:26:29.918Z,21.40
2022-08-07T09:30:04.319Z,21.40
2022-08-07T09:31:59.217Z,21.30
2022-08-07T09:34:32.039Z,21.40
2022-08-07T09:37:05.403Z,21.40
2022-08-07T09:39:55.454Z,21.40
2022-08-07T09:42:43.416Z,21.50
2022-08-07T09:47:23.711Z,21.50
2022-08-07T09:48:19.554Z,21.60
2022-08-07T09:50:56.595Z,21.70
2022-08-07T09:53:33.593Z,21.70
2022-08-07T09:56:34.113Z,21.70
2022-08-07T09:59:17.495Z,21.70
2022-08-07T10:02:03.886Z,21.70
2022-08-07T10:04:38.414Z,21.70
2022-08-07T10:07:26.013Z,21.70
2022-08-07T10:10:05.081Z,21.70
2022-08-07T10:12:52.966Z,21.80
2022-08-07T10:15:49.795Z,21.80
2022-08-07T10:18:26.592Z,21.90
2022-08-07T10:21:19.926Z,21.90
2022-08-07T10:24:08.814Z,22.00
2022-08-07T10:26:53.211Z,22.00
2022-08-07T10:29:45.553Z,22.10
2022-08-07T10:32:51.555Z,22.20
2022-08-07T10:35:25.745Z,22.30
2022-08-07T10:38:21.257Z,22.40
2022-08-07T10:40:54.558Z,22.40
2022-08-07T10:43:34.424Z,22.50
2022-08-07T10:46:08.903Z,22.60
2022-08-07T10:48:45.556Z,22.70
2022-08-07T10:51:57.423Z,22.80
2022-08-07T10:54:13.989Z,22.90
2022-08-07T10:56:49.120Z,22.90
2022-08-07T10:59:22.771Z,23.00
2022-08-07T11:02:04.897Z,23.00
2022-08-07T11:04:48.396Z,23.10
2022-08-07T11:07:59.564Z,23.10
2022-08-07T11:10:19.671Z,23.20
2022-08-07T11:13:02.033Z,23.30
2022-08-07T11:15:37.315Z,23.50
2022-08-07T11:18:12.566Z,23.50
2022-08-07T11:20:45.492Z,23.60
2022-08-07T11:23:30.503Z,23.60
2022-08-07T11:26:12.980Z,23.70
2022-08-07T11:28:55.430Z,23.70
2022-08-07T11:31:35.123Z,23.60
2022-08-07T11:34:10.225Z,23.70
2022-08-07T11:36:42.175Z,23.80
2022-08-07T11:39:20.359Z,23.90
2022-08-07T11:42:00.280Z,24.00
2022-08-07T11:44:38.504Z,24.20
2022-08-07T11:47:14.919Z,24.50
2022-08-07T11:50:31.586Z,24.70
2022-08-07T11:53:08.738Z,24.70
2022-08-07T11:56:25.101Z,24.70
2022-08-07T11:58:43.714Z,24.70
2022-08-07T12:01:53.183Z,24.70
2022-08-07T12:04:33.900Z,24.60
2022-08-07T12:07:23.587Z,24.50
2022-08-07T12:09:59.480Z,24.40
2022-08-07T12:12:36.622Z,24.30
2022-08-07T12:15:17.408Z,24.20
2022-08-07T12:18:08.014Z,24.20
2022-08-07T12:20:49.330Z,24.10
2022-08-07T12:24:05.609Z,24.10
2022-08-07T12:26:29.849Z,24.30
2022-08-07T12:29:05.695Z,24.50
2022-08-07T12:32:02.309Z,24.70
2022-08-07T12:34:30.739Z,24.90
2022-08-07T12:37:08.497Z,25.10
2022-08-07T12:39:50.801Z,25.20
2022-08-07T12:42:27.858Z,25.40
2022-08-07T12:44:59.323Z,25.50
2022-08-07T12:47:33.879Z,25.70
2022-08-07T12:50:34.081Z,25.80
2022-08-07T12:53:17.697Z,25.90
2022-08-07T12:56:02.057Z,26.00
2022-08-07T12:58:39.928Z,26.20
2022-08-07T13:01:19.841Z,26.30
2022-08-07T13:04:05.228Z,26.40
2022-08-07T13:07:00.844Z,26.40
2022-08-07T13:10:28.484Z,26.50
2022-08-07T13:12:31.255Z,26.60
2022-08-07T13:15:06.765Z,26.70
2022-08-07T13:17:42.507Z,26.90
2022-08-07T13:20:17.890Z,27.00
2022-08-07T13:22:52.469Z,27.10
2022-08-07T13:25:31.295Z,27.10
2022-08-07T13:28:10.806Z,27.20
2022-08-07T13:30:48.844Z,27.30
2022-08-07T13:34:30.446Z,27.40
2022-08-07T13:36:19.112Z,27.60
2022-08-07T13:38:54.504Z,27.80
2022-08-07T13:41:30.850Z,27.90
2022-08-07T13:44:05.145Z,28.00
2022-08-07T13:46:48.833Z,28.20
2022-08-07T13:50:32.843Z,28.20
2022-08-07T13:52:27.160Z,28.30
2022-08-07T13:55:08.100Z,28.40
2022-08-07T13:57:59.256Z,28.50
2022-08-07T14:00:50.349Z,28.60
2022-08-07T14:03:28.948Z,28.70
2022-08-07T14:06:00.094Z,28.80
2022-08-07T14:08:30.367Z,28.90
2022-08-07T14:11:01.881Z,28.90
2022-08-07T14:13:53.934Z,28.80
2022-08-07T14:16:31.092Z,28.80
2022-08-07T14:19:02.958Z,28.90
2022-08-07T14:22:01.809Z,29.10
2022-08-07T14:24:28.829Z,29.20
2022-08-07T14:28:10.272Z,29.20
2022-08-07T14:32:48.566Z,29.10
2022-08-07T14:35:43.097Z,29.20
2022-08-07T14:38:26.536Z,29.20
2022-08-07T14:41:03.883Z,29.50
2022-08-07T14:43:59.384Z,29.50
2022-08-07T14:46:31.413Z,29.60
2022-08-07T14:49:57.581Z,29.70
2022-08-07T14:52:04.315Z,29.90
2022-08-07T14:54:41.974Z,29.90
2022-08-07T14:57:19.624Z,30.00
2022-08-07T15:00:06.273Z,30.10
2022-08-07T15:02:39.628Z,30.30
2022-08-07T15:08:01.006Z,30.20
2022-08-07T15:10:31.283Z,30.30
2022-08-07T15:15:53.952Z,30.20
2022-08-07T15:21:58.659Z,30.60
2022-08-07T15:25:15.910Z,30.60
2022-08-07T15:27:09.860Z,30.40
2022-08-07T15:30:06.691Z,30.50
2022-08-07T15:32:39.438Z,30.70
2022-08-07T15:35:15.153Z,30.70
2022-08-07T15:38:17.886Z,30.80
2022-08-07T15:43:53.154Z,31.00
2022-08-07T15:49:15.260Z,31.10
2022-08-07T15:54:34.158Z,31.60
2022-08-07T15:57:04.795Z,31.20
2022-08-07T15:59:39.212Z,31.00
2022-08-07T16:02:10.238Z,31.10
2022-08-07T16:04:45.500Z,31.10
2022-08-07T16:08:33.089Z,31.00
2022-08-07T16:10:14.749Z,30.90
2022-08-07T16:13:01.295Z,31.10
2022-08-07T16:15:55.750Z,31.40
2022-08-07T16:18:49.584Z,31.90
2022-08-07T16:21:53.557Z,32.00
2022-08-07T16:24:34.486Z,31.80
2022-08-07T16:27:19.713Z,31.80
2022-08-07T16:30:30.498Z,31.90
2022-08-07T16:33:00.284Z,31.80
2022-08-07T16:35:58.887Z,31.50
2022-08-07T16:39:00.476Z,31.40
2022-08-07T16:41:41.130Z,31.90
2022-08-07T16:44:53.872Z,31.90
2022-08-07T16:50:38.699Z,32.80
2022-08-07T16:54:01.236Z,32.60
2022-08-07T16:56:21.021Z,32.50
2022-08-07T16:59:10.565Z,32.10
2022-08-07T17:01:51.243Z,31.90
2022-08-07T17:04:27.134Z,31.90
2022-08-07T17:07:04.249Z,32.00
2022-08-07T17:10:06.225Z,32.00
2022-08-07T17:12:44.409Z,32.00
2022-08-07T17:15:28.829Z,32.50
2022-08-07T17:18:18.936Z,32.80
2022-08-07T17:20:48.485Z,32.50
2022-08-07T17:23:36.956Z,32.30
2022-08-07T17:26:23.148Z,31.90
2022-08-07T17:29:09.018Z,31.70
2022-08-07T17:32:03.169Z,31.30
2022-08-07T17:35:02.746Z,31.40
2022-08-07T17:38:06.510Z,31.70
2022-08-07T17:40:30.455Z,31.10
2022-08-07T17:43:15.111Z,29.90
2022-08-07T17:45:56.473Z,29.10
2022-08-07T17:48:31.171Z,28.20
2022-08-07T17:51:02.763Z,27.70
2022-08-07T17:54:02.081Z,27.10
2022-08-07T17:56:32.490Z,26.80
2022-08-07T17:59:05.901Z,26.60
2022-08-07T18:01:48.540Z,26.50
2022-08-07T18:04:31.234Z,26.40
2022-08-07T18:07:22.644Z,26.00
2022-08-07T18:10:07.133Z,25.40
2022-08-07T18:12:50.838Z,24.70
2022-08-07T18:15:32.649Z,24.20
2022-08-07T18:18:45.267Z,23.90
2022-08-07T18:21:37.253Z,23.80
2022-08-07T18:24:07.007Z,23.70
2022-08-07T18:26:55.396Z,23.60
2022-08-07T18:30:05.423Z,23.60
2022-08-07T18:32:23.616Z,23.70
2022-08-07T18:35:02.458Z,23.80
2022-08-07T18:38:57.070Z,24.00
2022-08-07T18:40:42.874Z,24.20
2022-08-07T18:43:36.893Z,24.80
2022-08-07T18:46:24.854Z,25.80
2022-08-07T18:50:19.641Z,26.80
2022-08-07T18:52:37.484Z,27.70
2022-08-07T18:54:51.487Z,28.50
2022-08-07T18:57:30.282Z,29.20
2022-08-07T19:00:32.040Z,29.80
2022-08-07T19:03:02.632Z,30.40
2022-08-07T19:06:01.874Z,30.70
2022-08-07T19:08:30.735Z,30.80
2022-08-07T19:11:36.396Z,31.00
2022-08-07T19:14:19.820Z,31.20
2022-08-07T19:17:08.227Z,31.40
2022-08-07T19:19:53.996Z,31.90
2022-08-07T19:22:31.037Z,32.20
2022-08-07T19:25:05.467Z,32.70
2022-08-07T19:28:57.903Z,32.80
2022-08-07T19:30:58.417Z,32.60
2022-08-07T19:33:34.879Z,31.70
2022-08-07T19:36:08.695Z,30.90
2022-08-07T19:38:53.556Z,30.10
2022-08-07T19:41:44.114Z,29.60
2022-08-07T19:44:21.883Z,29.10
2022-08-07T19:46:57.728Z,28.70
2022-08-07T19:49:56.525Z,28.30
2022-08-07T19:52:20.129Z,28.10
2022-08-07T19:54:56.323Z,27.80
2022-08-07T19:58:01.762Z,27.60
2022-08-07T20:00:28.851Z,27.40
2022-08-07T20:03:04.107Z,27.20
2022-08-07T20:06:00.002Z,27.10
2022-08-07T20:08:26.843Z,26.90
2022-08-07T20:11:02.143Z,26.80
2022-08-07T20:13:36.734Z,26.80
2022-08-07T20:16:15.732Z,26.60
2022-08-07T20:19:04.364Z,26.60
2022-08-07T20:21:46.987Z,26.40
2022-08-07T20:24:21.731Z,25.40
2022-08-07T20:26:54.466Z,24.50
2022-08-07T20:42:05.691Z,23.10
2022-08-07T20:44:45.588Z,24.30
2022-08-07T20:47:25.099Z,24.60
2022-08-07T20:50:01.331Z,24.60
2022-08-07T20:52:51.632Z,24.40
2022-08-07T20:55:27.255Z,24.20
2022-08-07T20:58:03.466Z,24.10
2022-08-07T21:00:42.201Z,24.10
2022-08-07T21:03:14.705Z,24.00
2022-08-07T21:05:55.811Z,24.00
2022-08-07T21:08:36.757Z,24.10
2022-08-07T21:11:10.876Z,24.10
2022-08-07T21:14:16.744Z,24.10
2022-08-07T21:16:56.068Z,24.10
2022-08-07T21:19:32.152Z,24.20
2022-08-07T21:22:20.205Z,24.10
2022-08-07T21:25:12.294Z,24.00
2022-08-07T21:28:16.607Z,24.00
2022-08-07T21:30:58.449Z,23.90
2022-08-07T21:33:41.103Z,23.90
2022-08-07T21:36:31.274Z,23.80
2022-08-07T21:39:47.236Z,23.80
2022-08-07T21:42:02.765Z,23.80
2022-08-07T21:44:46.446Z,23.80
2022-08-07T21:47:27.585Z,23.80
2022-08-07T21:50:04.593Z,23.80
2022-08-07T21:53:11.217Z,23.80
2022-08-07T21:55:45.533Z,23.70
2022-08-07T21:58:30.581Z,23.70
2022-08-07T22:01:04.356Z,23.60
2022-08-07T22:03:43.330Z,23.50
2022-08-07T22:06:30.323Z,23.50
2022-08-07T22:09:03.441Z,23.40
2022-08-07T22:12:05.223Z,23.40
2022-08-07T22:14:34.865Z,23.30
2022-08-07T22:17:06.547Z,23.30
2022-08-07T22:19:40.916Z,23.20
2022-08-07T22:22:21.100Z,23.20
2022-08-07T22:25:07.557Z,23.20
2022-08-07T22:28:19.902Z,23.20
2022-08-07T22:30:32.129Z,23.10
2022-08-07T22:33:06.274Z,23.10
2022-08-07T22:35:42.742Z,23.10
2022-08-07T22:38:20.383Z,23.10
2022-08-07T22:40:57.050Z,23.10
2022-08-07T22:43:41.187Z,23.10
2022-08-07T22:47:02.175Z,23.10
2022-08-07T22:49:18.688Z,23.10
2022-08-07T22:52:39.573Z,23.10
2022-08-07T22:55:39.604Z,23.00
2022-08-07T22:58:42.542Z,23.00
2022-08-07T23:01:49.812Z,23.00
2022-08-07T23:04:56.659Z,23.00
2022-08-07T23:07:41.713Z,23.10
2022-08-07T23:10:37.941Z,23.10
2022-08-07T23:13:48.991Z,23.10
2022-08-07T23:16:46.769Z,23.00
2022-08-07T23:19:51.382Z,23.00
2022-08-07T23:22:29.058Z,23.00
2022-08-07T23:25:11.261Z,22.90
2022-08-07T23:28:22.287Z,22.90
2022-08-07T23:31:06.384Z,22.90
2022-08-07T23:34:33.935Z,22.90
2022-08-07T23:36:46.747Z,22.90
2022-08-07T23:39:40.890Z,22.90
2022-08-07T23:42:21.976Z,22.90
2022-08-07T23:45:05.855Z,23.00
2022-08-07T23:47:53.282Z,23.00
2022-08-07T23:50:33.399Z,23.00
2022-08-07T23:53:17.561Z,23.00
2022-08-07T23:55:55.635Z,23.00
2022-08-07T23:58:37.333Z,23.00
